Time;durP1;ratioP1;P1;durP2;ratioP2;P2;SDS_P1;SDS_P2;PMS_P1;PMS_P2;Temp;Humidity;BMP_temperature;BMP_pressure;BME280_temperature;BME280_humidity;BME280_pressure;Samples;Min_cycle;Max_cycle;Signal;HPM_P1;HPM_P2
2023/08/06 00:00:08;;;;;;;;;;;;;;;-144.99;nan;52362.50;4986037;28;20520;-65
2023/08/06 00:02:34;;;;;;;;;;;;;;;-144.99;nan;52333.94;4988656;28;19975;-65
2023/08/06 00:05:01;;;;;;;;;;;;;;;-144.99;nan;52354.34;4985449;28;19957;-65
2023/08/06 00:07:27;;;;;;;;;;;;;;;-144.99;nan;52342.09;4994127;28;20375;-66
2023/08/06 00:09:54;;;;;;;;;;;;;;;-144.99;nan;52305.41;4995020;28;19976;-62
2023/08/06 00:12:22;;;;;;;;;;;;;;;-144.99;nan;52340.06;4982609;28;20494;-62
2023/08/06 00:14:50;;;;;;;;;;;;;;;-144.99;nan;52331.91;4989144;28;20042;-62
2023/08/06 00:17:17;;;;;;;;;;;;;;;-144.99;nan;52327.84;4993096;28;20021;-63
2023/08/06 00:19:43;;;;;;;;;;;;;;;-144.99;nan;52321.72;4993223;28;19953;-63
2023/08/06 00:22:10;;;;;;;;;;;;;;;-144.99;nan;52293.19;4984327;28;20056;-62
2023/08/06 00:24:36;;;;;;;;;;;;;;;-144.99;nan;52321.72;4985721;28;19966;-63
2023/08/06 00:27:03;;;;;;;;;;;;;;;-144.99;nan;52342.09;4987050;28;20029;-61
2023/08/06 00:29:31;;;;;;;;;;;;;;;-144.99;nan;52299.31;4984674;28;19945;-64
2023/08/06 00:31:57;;;;;;;;;;;;;;;-144.99;nan;52342.09;4990180;28;20047;-64
2023/08/06 00:34:24;;;;;;;;;;;;;;;-144.99;nan;52319.69;4643330;28;9999862;-64
2023/08/06 00:36:50;;;;;;;;;;;;;;;-144.99;nan;52313.56;4980859;28;19988;-65
2023/08/06 00:39:17;;;;;;;;;;;;;;;-144.99;nan;52329.88;4986701;28;20387;-63
2023/08/06 00:41:43;;;;;;;;;;;;;;;-144.99;nan;52350.25;4986752;28;20252;-64
2023/08/06 00:44:10;;;;;;;;;;;;;;;-144.99;nan;52325.81;4986113;28;19970;-62
2023/08/06 00:46:38;;;;;;;;;;;;;;;-144.99;nan;52338.03;4985869;28;19987;-62
2023/08/06 00:49:05;;;;;;;;;;;;;;;-144.99;nan;52336.00;4989307;28;19945;-62
2023/08/06 00:51:32;;;;;;;;;;;;;;;-144.99;nan;52342.09;4989765;28;20064;-62
2023/08/06 00:53:59;;;;;;;;;;;;;;;-144.99;nan;52350.25;4991010;28;19984;-62
2023/08/06 00:56:26;;;;;;;;;;;;;;;-144.99;nan;52366.56;4992740;28;19982;-61
2023/08/06 00:58:53;;;;;;;;;;;;;;;-144.99;nan;52333.94;4992174;28;19945;-62
2023/08/06 01:01:19;;;;;;;;;;;;;;;-144.99;nan;52333.94;4989526;28;19968;-61
2023/08/06 01:03:47;;;;;;;;;;;;;;;-144.99;nan;52366.56;4982009;28;20096;-61
2023/08/06 01:06:15;;;;;;;;;;;;;;;-144.99;nan;52325.81;4977996;28;19970;-61
2023/08/06 01:08:48;;;;;;;;;;;;;;;-144.99;nan;52350.25;4981482;28;20334;-61
2023/08/06 01:11:19;;;;;;;;;;;;;;;-144.99;nan;52338.03;4989398;28;20002;-62
2023/08/06 01:13:49;;;;;;;;;;;;;;;-144.99;nan;52313.56;4985712;28;19953;-63
2023/08/06 01:16:16;;;;;;;;;;;;;;;-144.99;nan;52317.66;4985176;28;19980;-62
2023/08/06 01:18:46;;;;;;;;;;;;;;;-144.99;nan;52325.81;4991908;28;20061;-64
2023/08/06 01:21:13;;;;;;;;;;;;;;;-144.99;nan;52356.38;4994926;28;20447;-61
2023/08/06 01:23:40;;;;;;;;;;;;;;;-144.99;nan;52368.59;4996467;28;20000;-61
2023/08/06 01:26:11;;;;;;;;;;;;;;;-144.99;nan;52354.34;4990150;28;20038;-61
2023/08/06 01:28:42;;;;;;;;;;;;;;;-144.99;nan;52313.56;4989098;28;20037;-61
2023/08/06 01:31:11;;;;;;;;;;;;;;;-144.99;nan;52338.03;4985975;28;20003;-61
2023/08/06 01:33:44;;;;;;;;;;;;;;;-144.99;nan;52297.25;4988664;28;19949;-61
2023/08/06 01:36:11;;;;;;;;;;;;;;;-144.99;nan;52333.94;4987499;28;19961;-68
2023/08/06 01:38:39;;;;;;;;;;;;;;;-144.99;nan;52329.88;4988993;28;19947;-68
2023/08/06 01:41:05;;;;;;;;;;;;;;;-144.99;nan;52319.69;4989330;28;20061;-68
2023/08/06 01:43:32;;;;;;;;;;;;;;;-144.99;nan;52333.94;4993032;28;19974;-68
2023/08/06 01:45:58;;;;;;;;;;;;;;;-144.99;nan;52311.53;4988155;28;19988;-68
2023/08/06 01:48:25;;;;;;;;;;;;;;;-144.99;nan;52309.50;4982053;28;20677;-67
2023/08/06 01:50:51;;;;;;;;;;;;;;;-144.99;nan;52360.44;4986502;28;19946;-67
2023/08/06 01:53:18;;;;;;;;;;;;;;;-144.99;nan;52346.19;5000235;28;19946;-65
2023/08/06 01:55:49;;;;;;;;;;;;;;;-144.99;nan;52362.50;4991204;28;19982;-66
2023/08/06 01:58:19;;;;;;;;;;;;;;;-144.99;nan;52325.81;4992584;28;19960;-62
2023/08/06 02:00:45;;;;;;;;;;;;;;;-144.99;nan;52309.50;4988768;28;19956;-63
2023/08/06 02:03:12;;;;;;;;;;;;;;;-144.99;nan;52348.22;4988681;28;20073;-63
2023/08/06 02:05:38;;;;;;;;;;;;;;;-144.99;nan;52327.84;4996841;28;20137;-64
2023/08/06 02:08:05;;;;;;;;;;;;;;;-144.99;nan;52329.88;4991426;28;19937;-63
2023/08/06 02:10:31;;;;;;;;;;;;;;;-144.99;nan;52358.41;4991869;28;19999;-64
2023/08/06 02:12:59;;;;;;;;;;;;;;;-144.99;nan;52325.81;4988969;28;19975;-63
2023/08/06 02:15:26;;;;;;;;;;;;;;;-144.99;nan;52366.56;4994100;28;19954;-63
2023/08/06 02:17:52;;;;;;;;;;;;;;;-144.99;nan;52338.03;4987898;28;19950;-65
2023/08/06 02:20:19;;;;;;;;;;;;;;;-144.99;nan;52342.09;5002102;28;20049;-64
2023/08/06 02:22:45;;;;;;;;;;;;;;;-144.99;nan;52333.94;4988760;28;19971;-64
2023/08/06 02:25:12;;;;;;;;;;;;;;;-144.99;nan;52313.56;4988705;28;19942;-64
2023/08/06 02:27:38;;;;;;;;;;;;;;;-144.99;nan;52309.50;4988888;28;19954;-68
2023/08/06 02:30:07;;;;;;;;;;;;;;;-144.99;nan;52297.25;4988607;28;20010;-68
2023/08/06 02:32:35;;;;;;;;;;;;;;;-144.99;nan;52366.56;4986322;28;20397;-68
2023/08/06 02:35:02;;;;;;;;;;;;;;;-144.99;nan;52329.88;4986948;28;19998;-68
2023/08/06 02:37:28;;;;;;;;;;;;;;;-144.99;nan;52354.34;4985523;28;20021;-68
2023/08/06 02:39:55;;;;;;;;;;;;;;;-144.99;nan;52297.25;4989581;28;20379;-68
2023/08/06 02:42:21;;;;;;;;;;;;;;;-144.99;nan;52325.81;4990817;28;20412;-67
2023/08/06 02:44:48;;;;;;;;;;;;;;;-144.99;nan;52321.72;4997013;28;20386;-66
2023/08/06 02:47:16;;;;;;;;;;;;;;;-144.99;nan;52358.41;4999051;28;20434;-66
2023/08/06 02:49:42;;;;;;;;;;;;;;;-144.99;nan;52321.72;4998751;28;20029;-65
2023/08/06 02:52:09;;;;;;;;;;;;;;;-144.99;nan;52321.72;4987618;28;19969;-64
2023/08/06 02:54:35;;;;;;;;;;;;;;;-144.99;nan;52362.50;4991061;28;20000;-64
2023/08/06 02:57:02;;;;;;;;;;;;;;;-144.99;nan;52340.06;4992909;28;19947;-64
2023/08/06 02:59:28;;;;;;;;;;;;;;;-144.99;nan;52321.72;4992053;28;19951;-64
2023/08/06 03:01:55;;;;;;;;;;;;;;;-144.99;nan;52358.41;4987424;28;20026;-64
2023/08/06 03:04:23;;;;;;;;;;;;;;;-144.99;nan;52338.03;4992112;28;20004;-63
2023/08/06 03:06:50;;;;;;;;;;;;;;;-144.99;nan;52350.25;4989840;28;20144;-63
2023/08/06 03:09:16;;;;;;;;;;;;;;;-144.99;nan;52342.09;4992242;28;20495;-63
2023/08/06 03:11:43;;;;;;;;;;;;;;;-144.99;nan;52321.72;4991838;28;20021;-62
2023/08/06 03:14:09;;;;;;;;;;;;;;;-144.99;nan;52299.31;4991830;28;20054;-62
2023/08/06 03:16:36;;;;;;;;;;;;;;;-144.99;nan;52342.09;4985679;28;19957;-61
2023/08/06 03:19:02;;;;;;;;;;;;;;;-144.99;nan;52358.41;4991606;28;19976;-61
2023/08/06 03:21:30;;;;;;;;;;;;;;;-144.99;nan;52329.88;4991823;28;20384;-61
2023/08/06 03:23:57;;;;;;;;;;;;;;;-144.99;nan;52338.03;4990825;28;20633;-61
2023/08/06 03:26:23;;;;;;;;;;;;;;;-144.99;nan;52366.56;4989236;28;19956;-61
2023/08/06 03:28:50;;;;;;;;;;;;;;;-144.99;nan;52325.81;4991358;28;19952;-61
2023/08/06 03:31:16;;;;;;;;;;;;;;;-144.99;nan;52325.81;4997592;28;20076;-61
2023/08/06 03:33:42;;;;;;;;;;;;;;;-144.99;nan;52325.81;4986149;28;20042;-62
2023/08/06 03:36:09;;;;;;;;;;;;;;;-144.99;nan;52344.16;4991708;28;19996;-62
2023/08/06 03:38:37;;;;;;;;;;;;;;;-144.99;nan;52297.25;4987793;28;19989;-62
2023/08/06 03:41:03;;;;;;;;;;;;;;;-144.99;nan;52317.66;4991283;28;20456;-61
2023/08/06 03:43:30;;;;;;;;;;;;;;;-144.99;nan;52313.56;4991241;28;19969;-61
2023/08/06 03:45:56;;;;;;;;;;;;;;;-144.99;nan;52333.94;4991612;28;19997;-60
2023/08/06 03:48:23;;;;;;;;;;;;;;;-144.99;nan;52333.94;4986229;28;20421;-60
2023/08/06 03:50:49;;;;;;;;;;;;;;;-144.99;nan;52333.94;4991303;28;20011;-60
2023/08/06 03:53:16;;;;;;;;;;;;;;;-144.99;nan;52319.69;4990139;28;20348;-61
2023/08/06 03:55:44;;;;;;;;;;;;;;;-144.99;nan;52378.78;4987445;28;20412;-60
2023/08/06 03:58:10;;;;;;;;;;;;;;;-144.99;nan;52329.88;4990372;28;19982;-59
2023/08/06 04:00:37;;;;;;;;;;;;;;;-144.99;nan;52317.66;4990894;28;20411;-60
2023/08/06 04:03:03;;;;;;;;;;;;;;;-144.99;nan;52321.72;4994036;28;20001;-60
2023/08/06 04:05:31;;;;;;;;;;;;;;;-144.99;nan;52338.03;4997755;28;20059;-62
2023/08/06 04:07:59;;;;;;;;;;;;;;;-144.99;nan;52329.88;4987395;28;20391;-62
2023/08/06 04:10:26;;;;;;;;;;;;;;;-144.99;nan;52329.88;4990614;28;19952;-63
2023/08/06 04:12:53;;;;;;;;;;;;;;;-144.99;nan;52331.91;4990549;28;19963;-63
2023/08/06 04:15:20;;;;;;;;;;;;;;;-144.99;nan;52319.69;4990710;28;20000;-63
2023/08/06 04:17:46;;;;;;;;;;;;;;;-144.99;nan;52325.81;4994943;28;20039;-63
2023/08/06 04:20:13;;;;;;;;;;;;;;;-144.99;nan;52340.06;4990378;28;19953;-64
2023/08/06 04:22:39;;;;;;;;;;;;;;;-144.99;nan;52342.09;4988998;28;19997;-62
2023/08/06 04:25:06;;;;;;;;;;;;;;;-144.99;nan;52358.41;4988560;28;20031;-60
2023/08/06 04:27:33;;;;;;;;;;;;;;;-144.99;nan;52370.63;4990078;28;19943;-61
2023/08/06 04:30:01;;;;;;;;;;;;;;;-144.99;nan;52317.66;4972675;28;19981;-63
2023/08/06 04:32:27;;;;;;;;;;;;;;;-144.99;nan;52340.06;4990027;28;19965;-63
2023/08/06 04:34:56;;;;;;;;;;;;;;;-144.99;nan;52329.88;4986517;28;19947;-63
2023/08/06 04:37:23;;;;;;;;;;;;;;;-144.99;nan;52333.94;4989640;28;20067;-64
2023/08/06 04:39:49;;;;;;;;;;;;;;;-144.99;nan;52346.19;4989222;28;20219;-63
2023/08/06 04:42:16;;;;;;;;;;;;;;;-144.99;nan;52325.81;4989529;28;20412;-63
2023/08/06 04:44:42;;;;;;;;;;;;;;;-144.99;nan;52315.59;4996319;28;20022;-63
2023/08/06 04:47:10;;;;;;;;;;;;;;;-144.99;nan;52362.50;4989155;28;19990;-64
2023/08/06 04:49:36;;;;;;;;;;;;;;;-144.99;nan;52329.88;4989200;28;20001;-63
2023/08/06 04:52:03;;;;;;;;;;;;;;;-144.99;nan;52346.19;4989615;28;20048;-63
2023/08/06 04:54:29;;;;;;;;;;;;;;;-144.99;nan;52321.72;4990175;28;19993;-63
2023/08/06 04:56:56;;;;;;;;;;;;;;;-144.99;nan;52378.78;4991600;28;20033;-63
2023/08/06 04:59:22;;;;;;;;;;;;;;;-144.99;nan;52348.22;4989195;28;20053;-63
2023/08/06 05:01:49;;;;;;;;;;;;;;;-144.99;nan;52338.03;4985723;28;19986;-62
2023/08/06 05:04:16;;;;;;;;;;;;;;;-144.99;nan;52311.53;4986687;28;20570;-63
2023/08/06 05:06:43;;;;;;;;;;;;;;;-144.99;nan;52366.56;4989568;28;19954;-62
2023/08/06 05:09:09;;;;;;;;;;;;;;;-144.99;nan;52321.72;4989218;28;19990;-64
2023/08/06 05:11:36;;;;;;;;;;;;;;;-144.99;nan;52358.41;4989834;28;20005;-65
2023/08/06 05:14:02;;;;;;;;;;;;;;;-144.99;nan;52362.50;4994704;28;19945;-65
2023/08/06 05:16:29;;;;;;;;;;;;;;;-144.99;nan;52350.25;4988173;28;19951;-65
2023/08/06 05:18:55;;;;;;;;;;;;;;;-144.99;nan;52352.28;4972334;28;20030;-65
2023/08/06 05:21:23;;;;;;;;;;;;;;;-144.99;nan;52350.25;4988966;28;20004;-65
2023/08/06 05:23:50;;;;;;;;;;;;;;;-144.99;nan;52311.53;4990151;28;20384;-61
2023/08/06 05:26:18;;;;;;;;;;;;;;;-144.99;nan;52354.34;4994049;28;20164;-61
2023/08/06 05:28:45;;;;;;;;;;;;;;;-144.99;nan;52325.81;4988892;28;20237;-61
2023/08/06 05:31:11;;;;;;;;;;;;;;;-144.99;nan;52358.41;4988441;28;19994;-61
2023/08/06 05:33:37;;;;;;;;;;;;;;;-144.99;nan;52366.56;4988704;28;19948;-61
2023/08/06 05:36:04;;;;;;;;;;;;;;;-144.99;nan;52321.72;4988892;28;20053;-62
2023/08/06 05:38:32;;;;;;;;;;;;;;;-144.99;nan;52338.03;4996650;28;20053;-60
2023/08/06 05:40:59;;;;;;;;;;;;;;;-144.99;nan;52370.63;4988942;28;19975;-60
2023/08/06 05:43:25;;;;;;;;;;;;;;;-144.99;nan;52354.34;4989021;28;20321;-59
2023/08/06 05:45:51;;;;;;;;;;;;;;;-144.99;nan;52358.41;4988629;28;20000;-60
2023/08/06 05:48:18;;;;;;;;;;;;;;;-144.99;nan;52358.41;4988930;28;19950;-60
2023/08/06 05:50:44;;;;;;;;;;;;;;;-144.99;nan;52301.34;4988499;28;20347;-60
2023/08/06 05:53:11;;;;;;;;;;;;;;;-144.99;nan;52350.25;4988442;28;20330;-60
2023/08/06 05:55:39;;;;;;;;;;;;;;;-144.99;nan;52291.16;4989830;28;20044;-60
2023/08/06 05:58:05;;;;;;;;;;;;;;;-144.99;nan;52358.41;4987068;28;20008;-60
2023/08/06 06:00:32;;;;;;;;;;;;;;;-144.99;nan;52325.81;4987369;28;20390;-60
2023/08/06 06:02:58;;;;;;;;;;;;;;;-144.99;nan;52342.09;4986939;28;19965;-60
2023/08/06 06:05:25;;;;;;;;;;;;;;;-144.99;nan;52325.81;4985263;28;20476;-60
2023/08/06 06:07:51;;;;;;;;;;;;;;;-144.99;nan;52336.00;4985161;28;20040;-61
2023/08/06 06:10:18;;;;;;;;;;;;;;;-144.99;nan;52309.50;4986471;28;20612;-61
2023/08/06 06:12:46;;;;;;;;;;;;;;;-144.99;nan;52358.41;4985568;28;20074;-61
2023/08/06 06:15:12;;;;;;;;;;;;;;;-144.99;nan;52329.88;4988353;28;19988;-59
2023/08/06 06:17:39;;;;;;;;;;;;;;;-144.99;nan;52303.38;4992213;28;19948;-60
2023/08/06 06:20:06;;;;;;;;;;;;;;;-144.99;nan;52362.50;4992517;28;19997;-60
2023/08/06 06:22:33;;;;;;;;;;;;;;;-144.99;nan;52319.69;4991833;28;20003;-60
2023/08/06 06:24:59;;;;;;;;;;;;;;;-144.99;nan;52331.91;4983496;28;20434;-60
2023/08/06 06:27:25;;;;;;;;;;;;;;;-144.99;nan;52336.00;4986912;28;20049;-67
2023/08/06 06:29:54;;;;;;;;;;;;;;;-144.99;nan;52346.19;4984700;28;20041;-65
2023/08/06 06:32:21;;;;;;;;;;;;;;;-144.99;nan;52338.03;4988017;28;19967;-65
2023/08/06 06:34:47;;;;;;;;;;;;;;;-144.99;nan;52301.34;4991857;28;20019;-65
2023/08/06 06:37:14;;;;;;;;;;;;;;;-144.99;nan;52313.56;4990513;28;20095;-65
2023/08/06 06:39:40;;;;;;;;;;;;;;;-144.99;nan;52333.94;4993553;28;20216;-65
2023/08/06 06:42:07;;;;;;;;;;;;;;;-144.99;nan;52317.66;4989372;28;20006;-65
2023/08/06 06:44:33;;;;;;;;;;;;;;;-144.99;nan;52315.59;4997965;28;19999;-65
2023/08/06 06:47:01;;;;;;;;;;;;;;;-144.99;nan;52325.81;4994934;28;19945;-66
2023/08/06 06:49:28;;;;;;;;;;;;;;;-144.99;nan;52342.09;4995286;28;19975;-67
2023/08/06 06:51:54;;;;;;;;;;;;;;;-144.99;nan;52325.81;4997453;28;19966;-67
2023/08/06 06:54:21;;;;;;;;;;;;;;;-144.99;nan;52336.00;4995463;28;19996;-67
2023/08/06 06:56:48;;;;;;;;;;;;;;;-144.99;nan;52333.94;4993717;28;20001;-66
2023/08/06 06:59:14;;;;;;;;;;;;;;;-144.99;nan;52342.09;4991231;28;19989;-63
2023/08/06 07:01:41;;;;;;;;;;;;;;;-144.99;nan;52323.75;4992904;28;20354;-70
2023/08/06 07:04:08;;;;;;;;;;;;;;;-144.99;nan;52329.88;4990653;28;19994;-65
2023/08/06 07:06:35;;;;;;;;;;;;;;;-144.99;nan;52329.88;4991757;28;19945;-65
2023/08/06 07:09:01;;;;;;;;;;;;;;;-144.99;nan;52321.72;4999008;28;19986;-66
2023/08/06 07:11:28;;;;;;;;;;;;;;;-144.99;nan;52309.50;4991502;28;19988;-66
2023/08/06 07:13:57;;;;;;;;;;;;;;;-144.99;nan;52297.25;4994668;28;19996;-65
2023/08/06 07:16:23;;;;;;;;;;;;;;;-144.99;nan;52305.41;4992081;28;19959;-66
2023/08/06 07:18:50;;;;;;;;;;;;;;;-144.99;nan;52342.09;4998008;28;19945;-65
2023/08/06 07:21:18;;;;;;;;;;;;;;;-144.99;nan;52350.25;4991948;28;19963;-65
2023/08/06 07:23:45;;;;;;;;;;;;;;;-144.99;nan;52354.34;4983052;28;19945;-65
2023/08/06 07:26:11;;;;;;;;;;;;;;;-144.99;nan;52276.88;4991916;28;19961;-64
2023/08/06 07:28:38;;;;;;;;;;;;;;;-144.99;nan;52305.41;4988984;28;19950;-64
2023/08/06 07:31:05;;;;;;;;;;;;;;;-144.99;nan;52313.56;4990855;28;20066;-64
2023/08/06 07:33:31;;;;;;;;;;;;;;;-144.99;nan;52248.34;4990496;28;20402;-66
2023/08/06 07:35:57;;;;;;;;;;;;;;;-144.99;nan;52289.13;4987255;28;19957;-65
2023/08/06 07:38:26;;;;;;;;;;;;;;;-144.99;nan;52299.31;4990928;28;19951;-65
2023/08/06 07:40:52;;;;;;;;;;;;;;;-144.99;nan;52297.25;4989357;28;20046;-65
2023/08/06 07:43:19;;;;;;;;;;;;;;;-144.99;nan;52317.66;4997662;28;19948;-65
2023/08/06 07:45:45;;;;;;;;;;;;;;;-144.99;nan;52305.41;4989817;28;20017;-65
2023/08/06 07:48:12;;;;;;;;;;;;;;;-144.99;nan;52325.81;4987481;28;19975;-66
2023/08/06 07:50:38;;;;;;;;;;;;;;;-144.99;nan;52313.56;4986524;28;19983;-65
2023/08/06 07:53:05;;;;;;;;;;;;;;;-144.99;nan;52315.59;4987535;28;20137;-64
2023/08/06 07:55:32;;;;;;;;;;;;;;;-144.99;nan;52285.03;4992831;28;20037;-64
2023/08/06 07:57:59;;;;;;;;;;;;;;;-144.99;nan;52291.16;4986779;28;19958;-65
2023/08/06 08:00:25;;;;;;;;;;;;;;;-144.99;nan;52276.88;4985762;28;20013;-65
2023/08/06 08:02:52;;;;;;;;;;;;;;;-144.99;nan;52309.50;4988800;28;20413;-64
2023/08/06 08:05:18;;;;;;;;;;;;;;;-144.99;nan;52289.13;4991164;28;20469;-64
2023/08/06 08:07:45;;;;;;;;;;;;;;;-144.99;nan;52313.56;4990838;28;20349;-65
2023/08/06 08:10:11;;;;;;;;;;;;;;;-144.99;nan;52305.41;4988387;28;19972;-65
2023/08/06 08:12:39;;;;;;;;;;;;;;;-144.99;nan;52309.50;4990129;28;20071;-65
2023/08/06 08:15:06;;;;;;;;;;;;;;;-144.99;nan;52264.66;4990400;28;19954;-65
2023/08/06 08:17:34;;;;;;;;;;;;;;;-144.99;nan;52264.66;4987732;28;20069;-64
2023/08/06 08:20:00;;;;;;;;;;;;;;;-144.99;nan;52309.50;4998473;28;19947;-64
2023/08/06 08:22:27;;;;;;;;;;;;;;;-144.99;nan;52293.19;4995613;28;19966;-64
2023/08/06 08:24:53;;;;;;;;;;;;;;;-144.99;nan;52276.88;4991505;28;20022;-65
2023/08/06 08:27:20;;;;;;;;;;;;;;;-144.99;nan;52272.81;4986807;28;20026;-64
2023/08/06 08:29:48;;;;;;;;;;;;;;;-144.99;nan;52280.97;4991637;28;20432;-72
2023/08/06 08:32:14;;;;;;;;;;;;;;;-144.99;nan;52268.72;4998897;28;20010;-72
2023/08/06 08:34:41;;;;;;;;;;;;;;;-144.99;nan;52268.72;4989390;28;20069;-72
2023/08/06 08:37:07;;;;;;;;;;;;;;;-144.99;nan;52264.66;4995856;28;19946;-72
2023/08/06 08:39:34;;;;;;;;;;;;;;;-144.99;nan;52285.03;4992317;28;20003;-72
2023/08/06 08:42:02;;;;;;;;;;;;;;;-144.99;nan;52264.66;4990535;28;19957;-73
2023/08/06 08:44:29;;;;;;;;;;;;;;;-144.99;nan;52252.44;4996554;28;20119;-72
2023/08/06 08:46:58;;;;;;;;;;;;;;;-144.99;nan;52278.91;4981102;28;20057;-72
2023/08/06 08:49:25;;;;;;;;;;;;;;;-144.99;nan;52276.88;5000082;28;19953;-73
2023/08/06 08:51:53;;;;;;;;;;;;;;;-144.99;nan;52254.47;4992670;28;19986;-73
2023/08/06 08:54:21;;;;;;;;;;;;;;;-144.99;nan;52280.97;4995605;28;19960;-73
2023/08/06 08:56:47;;;;;;;;;;;;;;;-144.99;nan;52303.38;4996982;28;20073;-73
2023/08/06 08:59:13;;;;;;;;;;;;;;;-144.99;nan;52297.25;4990815;28;19949;-71
2023/08/06 09:01:41;;;;;;;;;;;;;;;-144.99;nan;52268.72;4991038;28;20016;-73
2023/08/06 09:04:09;;;;;;;;;;;;;;;-144.99;nan;52256.50;4991058;28;19955;-79
2023/08/06 09:06:38;;;;;;;;;;;;;;;-144.99;nan;52272.81;4988398;28;19975;-78
2023/08/06 09:09:07;;;;;;;;;;;;;;;-144.99;nan;52276.88;4991767;28;19952;-79
2023/08/06 09:11:39;;;;;;;;;;;;;;;-144.99;nan;52260.56;4992442;28;19962;-77
2023/08/06 09:14:07;;;;;;;;;;;;;;;-144.99;nan;52313.56;4993114;28;20037;-77
2023/08/06 09:16:34;;;;;;;;;;;;;;;-144.99;nan;52301.34;4990556;28;19949;-77
2023/08/06 09:19:07;;;;;;;;;;;;;;;-144.99;nan;52264.66;5006460;28;19984;-78
2023/08/06 09:21:37;;;;;;;;;;;;;;;-144.99;nan;52272.81;4993544;28;20027;-77
2023/08/06 09:24:07;;;;;;;;;;;;;;;-144.99;nan;52264.66;4988736;28;19943;-76
2023/08/06 09:26:34;;;;;;;;;;;;;;;-144.99;nan;52289.13;4982025;28;19968;-77
2023/08/06 09:29:01;;;;;;;;;;;;;;;-144.99;nan;52317.66;4992216;28;19989;-76
2023/08/06 09:31:33;;;;;;;;;;;;;;;-144.99;nan;52299.31;4980830;28;20002;-77
2023/08/06 09:34:00;;;;;;;;;;;;;;;-144.99;nan;52285.03;4986935;28;19941;-77
2023/08/06 09:36:28;;;;;;;;;;;;;;;-144.99;nan;52283.00;4990396;28;20003;-76
2023/08/06 09:38:56;;;;;;;;;;;;;;;-144.99;nan;52268.72;4991372;28;20435;-77
2023/08/06 09:41:27;;;;;;;;;;;;;;;-144.99;nan;52280.97;4990987;28;20013;-77
2023/08/06 09:43:53;;;;;;;;;;;;;;;-144.99;nan;52283.00;4986548;28;19949;-77
2023/08/06 09:46:21;;;;;;;;;;;;;;;-144.99;nan;52234.09;4988413;28;20342;-77
2023/08/06 09:48:48;;;;;;;;;;;;;;;-144.99;nan;52285.03;4992536;28;19946;-79
2023/08/06 09:51:15;;;;;;;;;;;;;;;-144.99;nan;52260.56;4991660;28;20447;-77
2023/08/06 09:53:42;;;;;;;;;;;;;;;-144.99;nan;52256.50;4988095;28;20038;-77
2023/08/06 09:56:10;;;;;;;;;;;;;;;-144.99;nan;52254.47;4988315;28;20000;-77
2023/08/06 09:58:37;;;;;;;;;;;;;;;-144.99;nan;52309.50;4993986;28;20054;-76
2023/08/06 10:01:05;;;;;;;;;;;;;;;-144.99;nan;52289.13;4995638;28;19961;-78
2023/08/06 10:03:32;;;;;;;;;;;;;;;-144.99;nan;52252.44;4985384;28;19963;-76
2023/08/06 10:05:58;;;;;;;;;;;;;;;-144.99;nan;52264.66;4988514;28;20296;-78
2023/08/06 10:08:25;;;;;;;;;;;;;;;-144.99;nan;52248.34;4989496;28;19947;-78
2023/08/06 10:10:51;;;;;;;;;;;;;;;-144.99;nan;52232.03;4989235;28;20355;-77
2023/08/06 10:13:22;;;;;;;;;;;;;;;-144.99;nan;52280.97;4991293;28;19961;-77
2023/08/06 10:15:49;;;;;;;;;;;;;;;-144.99;nan;52248.34;4990931;28;20175;-77
2023/08/06 10:18:20;;;;;;;;;;;;;;;-144.99;nan;52280.97;4995904;28;19951;-77
2023/08/06 10:20:47;;;;;;;;;;;;;;;-144.99;nan;52254.47;4984668;28;20426;-77
2023/08/06 10:23:14;;;;;;;;;;;;;;;-144.99;nan;52236.13;4986843;28;19950;-77
2023/08/06 10:25:41;;;;;;;;;;;;;;;-144.99;nan;52262.63;4987324;28;19978;-77
2023/08/06 10:28:09;;;;;;;;;;;;;;;-144.99;nan;52260.56;4983423;28;20000;-77
2023/08/06 10:30:41;;;;;;;;;;;;;;;-144.99;nan;52260.56;4986346;28;20017;-79
2023/08/06 10:33:08;;;;;;;;;;;;;;;-144.99;nan;52240.19;4986352;28;20045;-78
2023/08/06 10:35:38;;;;;;;;;;;;;;;-144.99;nan;52260.56;4988139;28;19951;-77
2023/08/06 10:38:05;;;;;;;;;;;;;;;-144.99;nan;52295.22;4993737;28;19946;-77
2023/08/06 10:40:32;;;;;;;;;;;;;;;-144.99;nan;52268.72;4980455;28;19944;-78
2023/08/06 10:42:59;;;;;;;;;;;;;;;-144.99;nan;52236.13;4987087;28;19968;-78
2023/08/06 10:45:28;;;;;;;;;;;;;;;-144.99;nan;52240.19;4980906;28;20038;-77
2023/08/06 10:48:09;;;;;;;;;;;;;;;-144.99;nan;52252.44;4986377;28;19950;-77
2023/08/06 10:50:46;;;;;;;;;;;;;;;-144.99;nan;52289.13;4988390;28;19953;-78
2023/08/06 10:53:13;;;;;;;;;;;;;;;-144.99;nan;52305.41;4986938;28;19949;-77
2023/08/06 10:55:40;;;;;;;;;;;;;;;-144.99;nan;52287.06;4988530;28;19981;-78
2023/08/06 10:58:06;;;;;;;;;;;;;;;-144.99;nan;52264.66;4985660;28;20056;-77
2023/08/06 11:00:33;;;;;;;;;;;;;;;-144.99;nan;52230.00;4989524;28;19944;-77
2023/08/06 11:03:01;;;;;;;;;;;;;;;-144.99;nan;52285.03;4984801;28;20004;-78
2023/08/06 11:05:28;;;;;;;;;;;;;;;-144.99;nan;52260.56;4983011;28;19969;-77
2023/08/06 11:07:54;;;;;;;;;;;;;;;-144.99;nan;52293.19;4991767;28;20494;-77
2023/08/06 11:10:21;;;;;;;;;;;;;;;-144.99;nan;52297.25;4988361;28;20028;-76
2023/08/06 11:12:47;;;;;;;;;;;;;;;-144.99;nan;52272.81;4988569;28;19962;-76
2023/08/06 11:15:14;;;;;;;;;;;;;;;-144.99;nan;52252.44;4984818;28;20055;-76
2023/08/06 11:17:41;;;;;;;;;;;;;;;-144.99;nan;52256.50;5010521;28;19992;-77
2023/08/06 11:20:10;;;;;;;;;;;;;;;-144.99;nan;52223.88;5001601;28;19953;-77
2023/08/06 11:22:37;;;;;;;;;;;;;;;-144.99;nan;52276.88;4993941;28;20016;-78
2023/08/06 11:25:03;;;;;;;;;;;;;;;-144.99;nan;52285.03;4991715;28;20034;-77
2023/08/06 11:27:30;;;;;;;;;;;;;;;-144.99;nan;52252.44;4983817;28;20076;-77
2023/08/06 11:29:57;;;;;;;;;;;;;;;-144.99;nan;52207.59;4985003;28;19948;-77
2023/08/06 11:32:23;;;;;;;;;;;;;;;-144.99;nan;52264.66;4998996;28;19972;-77
2023/08/06 11:34:50;;;;;;;;;;;;;;;-144.99;nan;52256.50;4990948;28;20000;-77
2023/08/06 11:37:22;;;;;;;;;;;;;;;-144.99;nan;52252.44;4988243;28;19948;-76
2023/08/06 11:39:49;;;;;;;;;;;;;;;-144.99;nan;52276.88;4990224;28;20449;-77
2023/08/06 11:42:15;;;;;;;;;;;;;;;-144.99;nan;52232.03;4982623;28;19981;-78
2023/08/06 11:44:44;;;;;;;;;;;;;;;-144.99;nan;52264.66;4988116;28;19991;-77
2023/08/06 11:47:13;;;;;;;;;;;;;;;-144.99;nan;52232.03;4991551;28;19976;-77
2023/08/06 11:49:40;;;;;;;;;;;;;;;-144.99;nan;52266.69;4992075;28;19975;-77
2023/08/06 11:52:11;;;;;;;;;;;;;;;-144.99;nan;52264.66;4988298;28;19993;-77
2023/08/06 11:54:39;;;;;;;;;;;;;;;-144.99;nan;52236.13;4989300;28;19946;-77
2023/08/06 11:57:06;;;;;;;;;;;;;;;-144.99;nan;52236.13;4995721;28;20396;-77
2023/08/06 11:59:33;;;;;;;;;;;;;;;-144.99;nan;52250.38;5006839;28;19949;-76
2023/08/06 12:02:01;;;;;;;;;;;;;;;-144.99;nan;52268.72;4991609;28;20071;-76
2023/08/06 12:04:27;;;;;;;;;;;;;;;-144.99;nan;52276.88;4987747;28;19946;-77
2023/08/06 12:06:54;;;;;;;;;;;;;;;-144.99;nan;52264.66;4992603;28;19972;-77
2023/08/06 12:09:21;;;;;;;;;;;;;;;-144.99;nan;52264.66;4986182;28;20198;-75
2023/08/06 12:11:49;;;;;;;;;;;;;;;-144.99;nan;52305.41;4990811;28;19978;-77
2023/08/06 12:14:15;;;;;;;;;;;;;;;-144.99;nan;52264.66;4985407;28;19990;-77
2023/08/06 12:16:41;;;;;;;;;;;;;;;-144.99;nan;52313.56;4993378;28;19986;-77
2023/08/06 12:19:08;;;;;;;;;;;;;;;-144.99;nan;52244.28;4987886;28;19947;-78
2023/08/06 12:21:34;;;;;;;;;;;;;;;-144.99;nan;52244.28;4988590;28;20151;-78
2023/08/06 12:24:01;;;;;;;;;;;;;;;-144.99;nan;52280.97;4984914;28;20036;-77
2023/08/06 12:26:27;;;;;;;;;;;;;;;-144.99;nan;52256.50;4994777;28;20431;-77
2023/08/06 12:28:57;;;;;;;;;;;;;;;-144.99;nan;52278.91;4985533;28;19940;-77
2023/08/06 12:31:25;;;;;;;;;;;;;;;-144.99;nan;52301.34;4987390;28;21327;-77
2023/08/06 12:33:52;;;;;;;;;;;;;;;-144.99;nan;52297.25;4988486;28;19940;-78
2023/08/06 12:36:18;;;;;;;;;;;;;;;-144.99;nan;52285.03;4989792;28;19956;-75
2023/08/06 12:38:45;;;;;;;;;;;;;;;-144.99;nan;52321.72;5002887;28;19945;-77
2023/08/06 12:41:11;;;;;;;;;;;;;;;-144.99;nan;52256.50;4997243;28;20484;-77
2023/08/06 12:43:38;;;;;;;;;;;;;;;-144.99;nan;52305.41;4990437;28;19987;-77
2023/08/06 12:46:05;;;;;;;;;;;;;;;-144.99;nan;52285.03;4998782;28;19945;-76